Ana Sayfa
METAR-TAF:

METAR-TAF

Havaalanları :

Kirksville Regional Airport

Kirksville, Missouri, Amerika Birleşik Devletleri

Enlem: 40-05-50N, Boylam: 092-32-36W, yükseklik: 294 m

Güncel hava durumu gözlemi

Rapor saat 03:55 UTC de 58 dakika önce yapıldı.
Rüzgar güneydan 5 kt
Sıcaklık 22°C
Nem 69%
Basınç 1013 hPa
Görüş mesafesi: 16.1 km
6000 ft yükseklikte parçalı bulutlu

METAR: KIRK 190355Z AUTO 19005KT 10SM SCT060 22/16 A2991 RMK AO2 SLP123 T02170161

Saat: 23:53 (04:53 UTC)


TAF: eksik

4.000'den fazla havaalanı için hava durumu gözlemleri ve tahminleri (METAR ve TAF raporları).

Kullanılabilir istasyonlar harita üzerinde sarı ve kırmızı noktalarla gösterilir.

İstasyonun adını görmek için fareyi noktanın üzerinde gezdirin.

Sonrasında hava gözlem ve tahminlerini görmek için tıklayın.

Haritayı değiştirmek için: yaklaştırmak için siyah artı işaretli yeşil düğmeye ve uzaklaştırmak için de eksi işaretli düğmeye hızla tıklayın; bitişik haritalar için yeşil okları kullanın.


METAR-TAF: